createdAt,value
2018-03-15T00:00:46.286Z,14.90
2018-03-15T00:03:20.015Z,14.13
2018-03-15T00:05:49.795Z,13.07
2018-03-15T00:08:19.720Z,13.17
2018-03-15T00:10:49.776Z,14.77
2018-03-15T00:13:19.740Z,13.47
2018-03-15T00:15:49.498Z,13.83
2018-03-15T00:18:19.156Z,14.33
2018-03-15T00:20:49.159Z,13.53
2018-03-15T00:23:18.922Z,14.17
2018-03-15T00:25:48.604Z,12.30
2018-03-15T00:28:18.286Z,13.97
2018-03-15T00:30:48.906Z,14.20
2018-03-15T00:33:19.305Z,13.73
2018-03-15T00:35:49.961Z,13.63
2018-03-15T00:38:20.425Z,14.27
2018-03-15T00:40:50.239Z,13.33
2018-03-15T00:43:20.297Z,13.00
2018-03-15T00:45:49.948Z,14.33
2018-03-15T00:48:19.689Z,13.77
2018-03-15T00:50:49.830Z,12.93
2018-03-15T00:53:19.556Z,14.23
2018-03-15T00:55:49.522Z,13.97
2018-03-15T00:58:19.177Z,12.83
2018-03-15T01:00:49.193Z,12.43
2018-03-15T01:03:19.191Z,12.17
2018-03-15T01:06:00.496Z,13.13
2018-03-15T01:08:31.395Z,13.10
2018-03-15T01:11:01.184Z,13.43
2018-03-15T01:13:30.828Z,13.63
2018-03-15T01:16:00.855Z,13.97
2018-03-15T01:18:30.573Z,13.50
2018-03-15T01:21:00.347Z,12.40
2018-03-15T01:23:30.157Z,12.70
2018-03-15T01:25:59.816Z,13.23
2018-03-15T01:28:30.538Z,13.03
2018-03-15T01:31:00.301Z,12.87
2018-03-15T01:33:30.089Z,11.23
2018-03-15T01:35:59.771Z,12.50
2018-03-15T01:38:29.414Z,12.90
2018-03-15T01:40:59.859Z,12.70
2018-03-15T01:43:29.701Z,12.73
2018-03-15T01:45:59.370Z,13.43
2018-03-15T01:48:30.039Z,13.13
2018-03-15T01:50:59.730Z,13.77
2018-03-15T01:53:29.811Z,13.80
2018-03-15T01:55:59.501Z,14.27
2018-03-15T01:58:29.241Z,13.00
2018-03-15T02:00:59.772Z,12.57
2018-03-15T02:03:30.410Z,12.70
2018-03-15T02:06:00.869Z,12.80
2018-03-15T02:08:30.848Z,11.80
2018-03-15T02:11:01.588Z,13.27
2018-03-15T02:13:32.237Z,12.80
2018-03-15T02:16:01.898Z,11.43
2018-03-15T02:18:31.884Z,11.53
2018-03-15T02:21:01.730Z,11.90
2018-03-15T02:23:31.519Z,12.77
2018-03-15T02:26:01.405Z,11.87
2018-03-15T02:28:31.087Z,11.27
2018-03-15T02:31:00.785Z,11.27
2018-03-15T02:33:31.093Z,11.63
2018-03-15T02:36:01.053Z,11.60
2018-03-15T02:38:31.412Z,10.97
2018-03-15T02:41:01.185Z,11.27
2018-03-15T02:43:31.864Z,11.37
2018-03-15T02:46:01.607Z,11.07
2018-03-15T02:48:32.867Z,10.83
2018-03-15T02:51:02.703Z,10.27
2018-03-15T02:53:32.783Z,10.33
2018-03-15T02:56:02.669Z,11.33
2018-03-15T02:58:32.344Z,10.10
2018-03-15T03:01:02.056Z,10.47
2018-03-15T03:03:31.844Z,10.43
2018-03-15T03:06:01.560Z,10.60
2018-03-15T03:08:32.244Z,10.60
2018-03-15T03:11:02.180Z,10.27
2018-03-15T03:13:31.896Z,10.07
2018-03-15T03:16:01.747Z,10.30
2018-03-15T03:18:32.244Z,10.60
2018-03-15T03:21:01.923Z,10.33
2018-03-15T03:23:31.625Z,11.57
2018-03-15T03:26:01.417Z,9.77
2018-03-15T03:28:31.312Z,10.13
2018-03-15T03:31:01.957Z,10.73
2018-03-15T03:33:31.989Z,10.60
2018-03-15T03:36:01.718Z,11.00
2018-03-15T03:38:31.640Z,11.20
2018-03-15T03:41:01.641Z,9.37
2018-03-15T03:43:31.423Z,10.67
2018-03-15T03:46:02.004Z,9.80
2018-03-15T03:48:31.742Z,9.97
2018-03-15T03:51:02.444Z,10.50
2018-03-15T03:53:32.459Z,9.90
2018-03-15T03:56:02.251Z,10.07
2018-03-15T03:58:32.015Z,10.27
2018-03-15T04:01:01.820Z,8.90
2018-03-15T04:03:31.773Z,9.37
2018-03-15T04:06:01.561Z,9.57
2018-03-15T04:08:31.329Z,8.67
2018-03-15T04:11:01.305Z,9.63
2018-03-15T04:13:31.892Z,9.10
2018-03-15T04:16:01.609Z,8.57
2018-03-15T04:18:31.388Z,9.17
2018-03-15T04:21:01.240Z,9.20
2018-03-15T04:23:30.940Z,9.10
2018-03-15T04:26:00.721Z,9.40
2018-03-15T04:28:30.544Z,9.70
2018-03-15T04:31:01.731Z,8.60
2018-03-15T04:33:31.472Z,9.50
2018-03-15T04:36:01.216Z,10.17
2018-03-15T04:38:31.024Z,9.83
2018-03-15T04:41:00.692Z,9.63
2018-03-15T04:43:31.204Z,8.50
2018-03-15T04:46:00.999Z,8.77
2018-03-15T04:48:30.732Z,9.73
2018-03-15T04:51:01.224Z,9.43
2018-03-15T04:53:31.068Z,9.60
2018-03-15T04:56:00.879Z,10.17
2018-03-15T04:58:30.552Z,9.17
2018-03-15T05:01:00.253Z,9.27
2018-03-15T05:03:30.339Z,9.90
2018-03-15T05:06:00.864Z,9.60
2018-03-15T05:08:31.630Z,8.60
2018-03-15T05:11:01.396Z,9.50
2018-03-15T05:13:31.269Z,9.00
2018-03-15T05:16:07.538Z,9.73
2018-03-15T05:18:37.364Z,9.17
2018-03-15T05:21:07.167Z,9.40
2018-03-15T05:23:36.938Z,9.80
2018-03-15T05:26:07.372Z,9.47
2018-03-15T05:28:37.919Z,8.27
2018-03-15T05:31:07.807Z,9.37
2018-03-15T05:33:38.375Z,9.73
2018-03-15T05:36:08.086Z,9.70
2018-03-15T05:38:37.848Z,9.57
2018-03-15T05:41:07.588Z,8.87
2018-03-15T05:43:37.337Z,9.43
2018-03-15T05:46:07.336Z,10.13
2018-03-15T05:48:37.032Z,9.17
2018-03-15T05:51:06.899Z,9.07
2018-03-15T05:53:37.497Z,10.40
2018-03-15T05:56:07.488Z,10.23
2018-03-15T05:58:37.809Z,9.27
2018-03-15T06:01:08.488Z,9.40
2018-03-15T06:03:38.276Z,9.80
2018-03-15T06:06:08.105Z,10.30
2018-03-15T06:08:37.856Z,9.70
2018-03-15T06:11:07.825Z,9.30
2018-03-15T06:13:37.510Z,9.40
2018-03-15T06:16:08.134Z,10.20
2018-03-15T06:18:38.673Z,9.27
2018-03-15T06:21:08.796Z,9.23
2018-03-15T06:23:38.497Z,9.20
2018-03-15T06:26:09.832Z,9.10
2018-03-15T06:28:40.450Z,9.87
2018-03-15T06:31:10.863Z,9.63
2018-03-15T06:33:40.645Z,11.53
2018-03-15T06:36:10.455Z,12.37
2018-03-15T06:38:40.316Z,11.97
2018-03-15T06:41:10.136Z,12.50
2018-03-15T06:43:39.937Z,12.67
2018-03-15T06:46:09.793Z,12.40
2018-03-15T06:48:39.531Z,12.83
2018-03-15T06:51:09.306Z,12.00
2018-03-15T06:53:40.128Z,11.77
2018-03-15T06:56:09.966Z,12.57
2018-03-15T06:58:39.730Z,13.47
2018-03-15T07:01:09.843Z,12.63
2018-03-15T07:03:39.857Z,12.23
2018-03-15T07:06:09.596Z,14.17
2018-03-15T07:08:39.702Z,13.77
2018-03-15T07:11:09.619Z,12.77
2018-03-15T07:13:39.508Z,13.27
2018-03-15T07:16:09.491Z,11.97
2018-03-15T07:18:39.304Z,13.03
2018-03-15T07:21:09.141Z,13.60
2018-03-15T07:23:38.933Z,12.20
2018-03-15T07:26:09.796Z,12.87
2018-03-15T07:28:39.597Z,14.13
2018-03-15T07:31:09.525Z,12.80
2018-03-15T07:33:40.259Z,13.63
2018-03-15T07:36:09.952Z,14.10
2018-03-15T07:38:39.662Z,12.83
2018-03-15T07:41:09.389Z,12.03
2018-03-15T07:43:39.353Z,12.80
2018-03-15T07:46:10.097Z,12.90
2018-03-15T07:48:40.655Z,12.33
2018-03-15T07:51:10.520Z,12.90
2018-03-15T07:53:40.248Z,11.20
2018-03-15T07:56:10.733Z,11.37
2018-03-15T07:58:40.575Z,10.83
2018-03-15T08:01:10.323Z,10.93
2018-03-15T08:03:40.308Z,11.87
2018-03-15T08:06:10.252Z,11.10
2018-03-15T08:08:40.876Z,11.17
2018-03-15T08:11:11.688Z,11.00
2018-03-15T08:13:41.412Z,11.20
2018-03-15T08:16:12.348Z,10.83
2018-03-15T08:18:42.063Z,11.50
2018-03-15T08:21:12.038Z,10.97
2018-03-15T08:23:41.816Z,9.10
2018-03-15T08:26:12.374Z,9.30
2018-03-15T08:28:42.199Z,8.20
2018-03-15T08:31:11.972Z,7.03
2018-03-15T08:33:42.437Z,7.30
2018-03-15T08:36:12.433Z,7.23
2018-03-15T08:38:42.299Z,7.17
2018-03-15T08:41:12.249Z,6.80
2018-03-15T08:43:42.803Z,6.80
2018-03-15T08:46:12.971Z,6.87
2018-03-15T08:48:43.169Z,6.93
2018-03-15T08:51:13.007Z,6.30
2018-03-15T08:53:42.821Z,7.03
2018-03-15T08:56:12.743Z,6.03
2018-03-15T08:58:42.526Z,6.80
2018-03-15T09:01:12.272Z,7.03
2018-03-15T09:03:42.716Z,6.40
2018-03-15T09:06:12.505Z,6.73
2018-03-15T09:08:42.524Z,6.40
2018-03-15T09:11:12.948Z,7.03
2018-03-15T09:13:42.644Z,6.10
2018-03-15T09:16:12.561Z,6.77
2018-03-15T09:18:42.413Z,6.77
2018-03-15T09:21:13.684Z,6.10
2018-03-15T09:23:43.657Z,6.20
2018-03-15T09:26:14.191Z,6.47
2018-03-15T09:28:44.789Z,6.00
2018-03-15T09:31:14.468Z,6.37
2018-03-15T09:33:44.180Z,6.43
2018-03-15T09:36:14.348Z,6.37
2018-03-15T09:38:44.136Z,5.70
2018-03-15T09:41:14.061Z,6.10
2018-03-15T09:43:43.899Z,6.10
2018-03-15T09:46:14.510Z,6.00
2018-03-15T09:48:44.275Z,5.80
2018-03-15T09:51:14.158Z,6.50
2018-03-15T09:53:44.262Z,6.00
2018-03-15T09:56:13.943Z,6.07
2018-03-15T09:58:43.732Z,6.63
2018-03-15T10:01:13.954Z,5.90
2018-03-15T10:03:43.887Z,6.30
2018-03-15T10:06:13.816Z,5.83
2018-03-15T10:08:43.534Z,5.80
2018-03-15T10:11:13.206Z,5.93
2018-03-15T10:13:43.077Z,6.40
2018-03-15T10:16:12.824Z,5.53
2018-03-15T10:18:43.004Z,5.40
2018-03-15T10:21:12.929Z,6.23
2018-03-15T10:23:42.749Z,5.70
2018-03-15T10:26:12.813Z,5.90
2018-03-15T10:28:43.485Z,5.13
2018-03-15T10:31:13.292Z,5.87
2018-03-15T10:33:43.187Z,6.17
2018-03-15T10:36:12.993Z,6.40
2018-03-15T10:38:42.861Z,5.77
2018-03-15T10:41:12.599Z,6.00
2018-03-15T10:43:42.413Z,5.83
2018-03-15T10:46:12.332Z,6.00
2018-03-15T10:48:42.238Z,6.10
2018-03-15T10:51:12.031Z,5.80
2018-03-15T10:53:41.889Z,5.90
2018-03-15T10:56:18.325Z,5.23
2018-03-15T10:58:48.176Z,5.97
2018-03-15T11:01:22.143Z,5.60
2018-03-15T11:03:52.560Z,5.60
2018-03-15T11:06:27.172Z,6.47
2018-03-15T11:08:59.105Z,6.40
2018-03-15T11:11:28.868Z,5.80
2018-03-15T11:13:58.776Z,5.77
2018-03-15T11:16:28.708Z,5.63
2018-03-15T11:18:58.602Z,5.30
2018-03-15T11:21:29.404Z,5.70
2018-03-15T11:23:59.250Z,5.97
2018-03-15T11:26:29.721Z,5.40
2018-03-15T11:28:59.655Z,5.53
2018-03-15T11:31:29.358Z,5.40
2018-03-15T11:33:59.136Z,5.70
2018-03-15T11:36:29.008Z,5.70
2018-03-15T11:38:59.034Z,6.03
2018-03-15T11:41:29.569Z,5.13
2018-03-15T11:44:00.202Z,5.13
2018-03-15T11:46:29.956Z,5.13
2018-03-15T11:48:59.772Z,5.07
2018-03-15T11:51:29.608Z,5.20
2018-03-15T11:53:59.437Z,4.80
2018-03-15T11:56:29.348Z,5.00
2018-03-15T11:58:59.729Z,4.80
2018-03-15T12:01:29.472Z,5.10
2018-03-15T12:03:59.328Z,4.90
2018-03-15T12:06:29.859Z,5.10
2018-03-15T12:08:59.673Z,5.30
2018-03-15T12:11:30.231Z,5.60
2018-03-15T12:14:00.622Z,5.13
2018-03-15T12:16:30.441Z,5.27
2018-03-15T12:19:00.916Z,4.63
2018-03-15T12:21:30.868Z,4.47
2018-03-15T12:24:00.862Z,4.80
2018-03-15T12:26:30.593Z,4.73
2018-03-15T12:29:01.035Z,4.63
2018-03-15T12:31:31.608Z,4.13
2018-03-15T12:34:01.433Z,4.40
2018-03-15T12:36:31.197Z,3.63
2018-03-15T12:39:02.138Z,4.30
2018-03-15T12:41:31.956Z,4.30
2018-03-15T12:44:02.869Z,4.20
2018-03-15T12:46:33.041Z,3.67
2018-03-15T12:49:02.996Z,4.30
2018-03-15T12:51:33.040Z,3.50
2018-03-15T12:54:03.552Z,4.20
2018-03-15T12:56:33.305Z,3.90
2018-03-15T12:59:03.198Z,3.87
2018-03-15T13:01:33.716Z,3.70
2018-03-15T13:04:04.277Z,3.67
2018-03-15T13:06:34.298Z,3.87
2018-03-15T13:09:04.432Z,3.97
2018-03-15T13:11:34.125Z,4.47
2018-03-15T13:14:03.961Z,3.73
2018-03-15T13:16:33.625Z,4.23
2018-03-15T13:19:04.200Z,4.60
2018-03-15T13:21:33.983Z,4.13
2018-03-15T13:24:03.705Z,3.70
2018-03-15T13:26:33.539Z,4.27
2018-03-15T13:29:03.316Z,3.80
2018-03-15T13:31:33.256Z,4.43
2018-03-15T13:34:03.116Z,3.83
2018-03-15T13:36:33.816Z,3.33
2018-03-15T13:39:03.973Z,3.67
2018-03-15T13:41:33.690Z,3.90
2018-03-15T13:44:04.824Z,3.67
2018-03-15T13:46:34.715Z,3.57
2018-03-15T13:49:04.599Z,3.87
2018-03-15T13:51:34.545Z,3.70
2018-03-15T13:54:04.596Z,3.37
2018-03-15T13:56:35.146Z,3.80
2018-03-15T13:59:04.959Z,4.07
2018-03-15T14:01:34.812Z,3.20
2018-03-15T14:04:04.786Z,3.90
2018-03-15T14:06:34.812Z,3.80
2018-03-15T14:09:05.105Z,3.80
2018-03-15T14:11:35.317Z,3.73
2018-03-15T14:14:05.096Z,3.80
2018-03-15T14:16:34.860Z,3.77
2018-03-15T14:19:04.673Z,3.30
2018-03-15T14:21:35.349Z,3.87
2018-03-15T14:24:05.617Z,3.67
2018-03-15T14:26:36.117Z,3.53
2018-03-15T14:29:06.011Z,4.53
2018-03-15T14:31:35.815Z,4.50
2018-03-15T14:34:05.919Z,4.90
2018-03-15T14:36:35.945Z,4.57
2018-03-15T14:39:06.503Z,4.63
2018-03-15T14:41:36.209Z,4.23
2018-03-15T14:44:06.021Z,3.90
2018-03-15T14:46:35.873Z,4.43
2018-03-15T14:49:05.757Z,5.00
2018-03-15T14:51:35.778Z,4.77
2018-03-15T14:54:05.700Z,3.90
2018-03-15T14:56:35.651Z,3.83
2018-03-15T14:59:06.432Z,5.43
2018-03-15T15:01:36.524Z,4.10
2018-03-15T15:04:06.765Z,3.70
2018-03-15T15:06:36.708Z,3.93
2018-03-15T15:09:07.241Z,4.40
2018-03-15T15:11:37.024Z,3.60
2018-03-15T15:14:06.909Z,3.93
2018-03-15T15:16:37.570Z,3.63
2018-03-15T15:19:07.433Z,3.30
2018-03-15T15:21:37.301Z,3.67
2018-03-15T15:24:07.081Z,4.40
2018-03-15T15:26:37.697Z,4.13
2018-03-15T15:29:07.509Z,3.43
2018-03-15T15:31:37.273Z,4.03
2018-03-15T15:34:07.240Z,3.17
2018-03-15T15:36:37.039Z,4.00
2018-03-15T15:39:07.238Z,3.43
2018-03-15T15:41:37.097Z,4.07
2018-03-15T15:44:07.584Z,3.30
2018-03-15T15:46:37.324Z,3.67
2018-03-15T15:49:07.212Z,3.40
2018-03-15T15:51:37.241Z,3.57
2018-03-15T15:54:07.148Z,3.83
2018-03-15T15:56:36.984Z,3.40
2018-03-15T15:59:07.228Z,2.57
2018-03-15T16:01:40.752Z,3.50
2018-03-15T16:04:10.566Z,3.67
2018-03-15T16:06:40.346Z,3.50
2018-03-15T16:09:11.116Z,3.60
2018-03-15T16:11:41.155Z,3.27
2018-03-15T16:14:10.865Z,3.40
2018-03-15T16:16:40.764Z,2.87
2018-03-15T16:19:10.530Z,3.50
2018-03-15T16:21:41.199Z,3.67
2018-03-15T16:24:11.180Z,3.67
2018-03-15T16:26:41.818Z,3.20
2018-03-15T16:29:12.933Z,3.17
2018-03-15T16:31:42.731Z,3.13
2018-03-15T16:34:12.574Z,3.40
2018-03-15T16:36:42.546Z,3.60
2018-03-15T16:39:12.353Z,3.50
2018-03-15T16:41:42.886Z,3.60
2018-03-15T16:44:12.881Z,3.40
2018-03-15T16:46:42.828Z,3.37
2018-03-15T16:49:12.665Z,3.27
2018-03-15T16:51:42.588Z,3.33
2018-03-15T16:54:13.254Z,4.00
2018-03-15T16:56:43.395Z,3.20
2018-03-15T16:59:13.329Z,3.33
2018-03-15T17:01:43.367Z,3.43
2018-03-15T17:04:13.213Z,3.37
2018-03-15T17:06:42.965Z,3.20
2018-03-15T17:09:12.756Z,3.70
2018-03-15T17:11:42.595Z,3.57
2018-03-15T17:14:12.441Z,4.03
2018-03-15T17:16:42.153Z,3.00
2018-03-15T17:19:12.139Z,4.00
2018-03-15T17:21:41.856Z,3.50
2018-03-15T17:24:11.703Z,3.23
2018-03-15T17:26:42.309Z,3.27
2018-03-15T17:29:12.057Z,3.43
2018-03-15T17:31:42.625Z,3.70
2018-03-15T17:34:12.433Z,3.60
2018-03-15T17:36:42.285Z,3.33
2018-03-15T17:39:12.320Z,3.73
2018-03-15T17:41:42.874Z,3.83
2018-03-15T17:44:12.716Z,3.83
2018-03-15T17:46:42.543Z,3.93
2018-03-15T17:49:12.444Z,4.30
2018-03-15T17:51:42.442Z,4.00
2018-03-15T17:54:12.729Z,3.43
2018-03-15T17:56:43.325Z,3.80
2018-03-15T17:59:13.096Z,3.17
2018-03-15T18:01:42.870Z,3.67
2018-03-15T18:04:12.885Z,3.83
2018-03-15T18:06:42.856Z,3.70
2018-03-15T18:09:12.877Z,3.83
2018-03-15T18:11:43.045Z,3.83
2018-03-15T18:14:13.116Z,3.37
2018-03-15T18:16:43.799Z,3.63
2018-03-15T18:19:15.285Z,3.60
2018-03-15T18:21:45.105Z,3.77
2018-03-15T18:24:14.992Z,3.90
2018-03-15T18:26:45.716Z,4.00
2018-03-15T18:29:15.567Z,3.90
2018-03-15T18:31:45.349Z,4.30
2018-03-15T18:34:15.882Z,3.47
2018-03-15T18:36:46.887Z,3.57
2018-03-15T18:39:16.944Z,3.23
2018-03-15T18:41:47.556Z,3.90
2018-03-15T18:44:18.243Z,4.03
2018-03-15T18:46:48.192Z,3.60
2018-03-15T18:49:17.941Z,4.03
2018-03-15T18:51:48.581Z,4.00
2018-03-15T18:54:18.789Z,3.83
2018-03-15T18:56:49.324Z,4.10
2018-03-15T18:59:20.126Z,3.97
2018-03-15T19:01:49.961Z,4.37
2018-03-15T19:04:19.806Z,3.73
2018-03-15T19:06:49.542Z,4.23
2018-03-15T19:09:19.346Z,3.93
2018-03-15T19:11:49.205Z,3.90
2018-03-15T19:14:19.128Z,4.00
2018-03-15T19:16:49.772Z,4.00
2018-03-15T19:19:19.626Z,4.57
2018-03-15T19:21:49.719Z,3.83
2018-03-15T19:24:19.748Z,4.20
2018-03-15T19:26:49.683Z,4.23
2018-03-15T19:29:19.467Z,4.27
2018-03-15T19:31:49.293Z,4.40
2018-03-15T19:34:19.061Z,4.47
2018-03-15T19:36:48.913Z,4.47
2018-03-15T19:39:18.664Z,4.97
2018-03-15T19:41:48.536Z,4.73
2018-03-15T19:44:18.314Z,5.13
2018-03-15T19:46:48.138Z,5.27
2018-03-15T19:49:18.651Z,4.43
2018-03-15T19:51:48.691Z,5.07
2018-03-15T19:54:19.335Z,4.57
2018-03-15T19:56:49.332Z,5.47
2018-03-15T19:59:19.998Z,5.47
2018-03-15T20:01:52.549Z,5.43
2018-03-15T20:04:23.076Z,5.87
2018-03-15T20:06:53.761Z,5.53
2018-03-15T20:09:23.514Z,5.80
2018-03-15T20:11:53.290Z,5.70
2018-03-15T20:14:23.067Z,5.20
2018-03-15T20:16:53.605Z,5.77
2018-03-15T20:19:23.510Z,5.93
2018-03-15T20:21:55.861Z,6.20
2018-03-15T20:24:32.810Z,5.97
2018-03-15T20:27:02.598Z,5.80
2018-03-15T20:29:32.432Z,6.03
2018-03-15T20:32:02.312Z,5.83
2018-03-15T20:34:32.060Z,5.63
2018-03-15T20:37:02.083Z,7.03
2018-03-15T20:40:34.780Z,6.63
2018-03-15T20:43:04.543Z,6.90
2018-03-15T20:45:38.570Z,6.43
2018-03-15T20:49:10.921Z,6.53
2018-03-15T20:51:41.436Z,6.23
2018-03-15T20:54:12.388Z,7.13
2018-03-15T20:56:42.287Z,6.80
2018-03-15T20:59:12.176Z,7.20
2018-03-15T21:01:42.126Z,7.87
2018-03-15T21:04:12.672Z,6.53
2018-03-15T21:06:42.644Z,7.97
2018-03-15T21:09:12.412Z,7.07
2018-03-15T21:11:42.312Z,7.07
2018-03-15T21:14:12.203Z,7.77
2018-03-15T21:16:42.236Z,7.77
2018-03-15T21:19:12.925Z,7.70
2018-03-15T21:21:43.030Z,7.90
2018-03-15T21:24:12.868Z,7.73
2018-03-15T21:26:42.661Z,8.50
2018-03-15T21:29:12.702Z,8.13
2018-03-15T21:31:42.736Z,8.60
2018-03-15T21:34:13.272Z,8.10
2018-03-15T21:36:43.824Z,8.93
2018-03-15T21:39:13.764Z,8.63
2018-03-15T21:41:43.561Z,8.90
2018-03-15T21:44:13.289Z,8.63
2018-03-15T21:46:43.021Z,9.47
2018-03-15T21:49:12.956Z,9.53
2018-03-15T21:51:42.731Z,8.43
2018-03-15T21:54:12.491Z,8.73
2018-03-15T21:56:43.136Z,9.07
2018-03-15T21:59:13.864Z,9.10
2018-03-15T22:01:44.537Z,10.30
2018-03-15T22:04:14.509Z,10.03
2018-03-15T22:06:45.126Z,9.47
2018-03-15T22:09:15.429Z,9.47
2018-03-15T22:11:45.344Z,10.00
2018-03-15T22:14:15.596Z,9.77
2018-03-15T22:16:45.677Z,9.10
2018-03-15T22:19:15.632Z,10.40
2018-03-15T22:21:46.395Z,10.40
2018-03-15T22:24:17.225Z,10.10
2018-03-15T22:26:47.286Z,10.03
2018-03-15T22:29:17.228Z,9.50
2018-03-15T22:31:47.038Z,9.93
2018-03-15T22:34:17.008Z,9.20
2018-03-15T22:36:46.808Z,9.33
2018-03-15T22:39:16.588Z,10.20
2018-03-15T22:41:46.517Z,9.70
2018-03-15T22:44:16.967Z,11.00
2018-03-15T22:46:46.755Z,10.90
2018-03-15T22:49:17.502Z,11.13
2018-03-15T22:51:47.506Z,10.33
2018-03-15T22:54:18.163Z,10.03
2018-03-15T22:56:48.145Z,10.50
2018-03-15T22:59:18.149Z,11.27
2018-03-15T23:01:48.693Z,11.30
2018-03-15T23:04:19.328Z,11.90
2018-03-15T23:06:49.839Z,11.20
2018-03-15T23:09:19.713Z,11.03
2018-03-15T23:11:49.497Z,10.67
2018-03-15T23:14:20.306Z,11.13
2018-03-15T23:16:50.385Z,11.07
2018-03-15T23:19:20.417Z,10.63
2018-03-15T23:21:50.206Z,10.40
2018-03-15T23:24:19.894Z,11.13
2018-03-15T23:26:50.455Z,10.77
2018-03-15T23:29:20.232Z,11.33
2018-03-15T23:31:50.917Z,9.63
2018-03-15T23:34:20.605Z,10.63
2018-03-15T23:36:50.364Z,11.47
2018-03-15T23:39:20.188Z,11.53
2018-03-15T23:41:50.057Z,11.90
2018-03-15T23:44:19.875Z,11.10
2018-03-15T23:46:49.768Z,12.30
2018-03-15T23:49:19.696Z,11.50
2018-03-15T23:51:49.501Z,12.43
2018-03-15T23:54:19.268Z,11.57
2018-03-15T23:56:49.020Z,11.57
2018-03-15T23:59:18.839Z,12.57
